sensor_id;sensor_type;location;lat;lon;timestamp;pressure;altitude;pressure_sealevel;temperature;humidity
76424;BME280;65257;52.104;4.268;2022-12-18T00:01:25;102721.63;;;-2.76;89.77
76424;BME280;65257;52.104;4.268;2022-12-18T00:03:52;102715.56;;;-2.78;89.94
76424;BME280;65257;52.104;4.268;2022-12-18T00:06:19;102715.88;;;-2.82;90.67
76424;BME280;65257;52.104;4.268;2022-12-18T00:08:45;102714.47;;;-2.80;90.36
76424;BME280;65257;52.104;4.268;2022-12-18T00:11:22;102711.97;;;-2.80;90.77
76424;BME280;65257;52.104;4.268;2022-12-18T00:13:49;102731.66;;;-2.83;90.65
76424;BME280;65257;52.104;4.268;2022-12-18T00:16:20;102716.94;;;-2.87;90.32
76424;BME280;65257;52.104;4.268;2022-12-18T00:18:48;102708.38;;;-2.89;90.61
76424;BME280;65257;52.104;4.268;2022-12-18T00:21:17;102718.03;;;-2.92;90.67
76424;BME280;65257;52.104;4.268;2022-12-18T00:23:43;102704.97;;;-2.97;90.86
76424;BME280;65257;52.104;4.268;2022-12-18T00:29:22;102694.22;;;-3.03;90.31
76424;BME280;65257;52.104;4.268;2022-12-18T00:31:48;102703.00;;;-2.92;90.53
76424;BME280;65257;52.104;4.268;2022-12-18T00:34:16;102705.34;;;-3.01;90.75
76424;BME280;65257;52.104;4.268;2022-12-18T00:36:42;102713.38;;;-2.89;90.53
76424;BME280;65257;52.104;4.268;2022-12-18T00:39:07;102711.63;;;-2.90;90.40
76424;BME280;65257;52.104;4.268;2022-12-18T00:41:33;102711.63;;;-2.90;90.92
76424;BME280;65257;52.104;4.268;2022-12-18T00:44:19;102725.53;;;-2.99;90.17
76424;BME280;65257;52.104;4.268;2022-12-18T00:46:46;102709.78;;;-3.05;91.33
76424;BME280;65257;52.104;4.268;2022-12-18T00:49:12;102713.00;;;-2.99;91.01
76424;BME280;65257;52.104;4.268;2022-12-18T00:51:39;102719.81;;;-2.91;91.24
76424;BME280;65257;52.104;4.268;2022-12-18T00:54:05;102715.19;;;-2.88;91.25
76424;BME280;65257;52.104;4.268;2022-12-18T00:56:31;102714.44;;;-2.87;91.24
76424;BME280;65257;52.104;4.268;2022-12-18T00:58:56;102715.00;;;-2.90;91.35
76424;BME280;65257;52.104;4.268;2022-12-18T01:01:22;102730.91;;;-2.96;91.21
76424;BME280;65257;52.104;4.268;2022-12-18T01:03:47;102709.44;;;-2.94;90.66
76424;BME280;65257;52.104;4.268;2022-12-18T01:06:14;102710.88;;;-2.96;90.78
76424;BME280;65257;52.104;4.268;2022-12-18T01:08:39;102712.28;;;-3.05;90.86
76424;BME280;65257;52.104;4.268;2022-12-18T01:11:10;102733.75;;;-3.00;91.10
76424;BME280;65257;52.104;4.268;2022-12-18T01:13:36;102733.25;;;-2.98;90.49
76424;BME280;65257;52.104;4.268;2022-12-18T01:16:02;102728.41;;;-3.03;91.02
76424;BME280;65257;52.104;4.268;2022-12-18T01:18:28;102743.06;;;-2.99;90.67
76424;BME280;65257;52.104;4.268;2022-12-18T01:20:53;102735.16;;;-3.02;90.69
76424;BME280;65257;52.104;4.268;2022-12-18T01:23:19;102722.28;;;-3.05;90.35
76424;BME280;65257;52.104;4.268;2022-12-18T01:25:47;102727.66;;;-3.09;90.80
76424;BME280;65257;52.104;4.268;2022-12-18T01:28:12;102726.22;;;-3.07;90.39
76424;BME280;65257;52.104;4.268;2022-12-18T01:30:40;102739.81;;;-3.12;90.38
76424;BME280;65257;52.104;4.268;2022-12-18T01:33:06;102727.28;;;-3.12;91.01
76424;BME280;65257;52.104;4.268;2022-12-18T01:35:56;102730.69;;;-3.19;90.15
76424;BME280;65257;52.104;4.268;2022-12-18T01:38:22;102734.41;;;-3.23;90.58
76424;BME280;65257;52.104;4.268;2022-12-18T01:40:47;102731.91;;;-3.23;90.30
76424;BME280;65257;52.104;4.268;2022-12-18T01:43:12;102739.94;;;-3.25;90.24
76424;BME280;65257;52.104;4.268;2022-12-18T01:45:38;102751.94;;;-3.23;90.22
76424;BME280;65257;52.104;4.268;2022-12-18T01:48:06;102744.44;;;-3.23;90.77
76424;BME280;65257;52.104;4.268;2022-12-18T01:50:42;102749.44;;;-3.23;90.63
76424;BME280;65257;52.104;4.268;2022-12-18T01:53:19;102750.84;;;-3.25;90.19
76424;BME280;65257;52.104;4.268;2022-12-18T01:55:51;102756.91;;;-3.30;90.52
76424;BME280;65257;52.104;4.268;2022-12-18T01:58:19;102753.66;;;-3.36;90.26
76424;BME280;65257;52.104;4.268;2022-12-18T02:00:45;102760.47;;;-3.42;90.90
76424;BME280;65257;52.104;4.268;2022-12-18T02:03:11;102753.66;;;-3.43;91.27
76424;BME280;65257;52.104;4.268;2022-12-18T02:08:15;102757.59;;;-3.38;90.83
76424;BME280;65257;52.104;4.268;2022-12-18T02:10:51;102776.00;;;-3.44;91.13
76424;BME280;65257;52.104;4.268;2022-12-18T02:13:43;102770.09;;;-3.45;90.94
76424;BME280;65257;52.104;4.268;2022-12-18T02:16:23;102765.06;;;-3.52;91.54
76424;BME280;65257;52.104;4.268;2022-12-18T02:18:56;102765.22;;;-3.50;91.18
76424;BME280;65257;52.104;4.268;2022-12-18T02:24:16;102755.75;;;-3.53;90.74
76424;BME280;65257;52.104;4.268;2022-12-18T02:26:47;102760.75;;;-3.53;91.47
76424;BME280;65257;52.104;4.268;2022-12-18T02:29:50;102757.56;;;-3.52;91.01
76424;BME280;65257;52.104;4.268;2022-12-18T02:32:26;102760.75;;;-3.53;90.81
76424;BME280;65257;52.104;4.268;2022-12-18T02:35:01;102753.25;;;-3.53;90.37
76424;BME280;65257;52.104;4.268;2022-12-18T02:37:30;102749.31;;;-3.58;90.32
76424;BME280;65257;52.104;4.268;2022-12-18T02:40:00;102742.88;;;-3.56;90.16
76424;BME280;65257;52.104;4.268;2022-12-18T02:42:27;102730.38;;;-3.56;90.12
76424;BME280;65257;52.104;4.268;2022-12-18T02:44:53;102727.31;;;-3.60;90.11
76424;BME280;65257;52.104;4.268;2022-12-18T02:47:23;102723.38;;;-3.65;90.59
76424;BME280;65257;52.104;4.268;2022-12-18T02:50:05;102724.63;;;-3.62;90.18
76424;BME280;65257;52.104;4.268;2022-12-18T03:01:16;102710.31;;;-3.70;90.79
76424;BME280;65257;52.104;4.268;2022-12-18T03:06:28;102689.94;;;-3.73;90.46
76424;BME280;65257;52.104;4.268;2022-12-18T03:08:59;102697.44;;;-3.73;89.86
76424;BME280;65257;52.104;4.268;2022-12-18T03:11:34;102700.31;;;-3.70;90.69
76424;BME280;65257;52.104;4.268;2022-12-18T03:14:24;102697.44;;;-3.73;90.66
76424;BME280;65257;52.104;4.268;2022-12-18T03:17:05;102698.66;;;-3.76;89.94
76424;BME280;65257;52.104;4.268;2022-12-18T03:19:48;102694.56;;;-3.76;90.27
76424;BME280;65257;52.104;4.268;2022-12-18T03:22:16;102706.00;;;-3.78;90.79
76424;BME280;65257;52.104;4.268;2022-12-18T03:24:41;102695.63;;;-3.81;90.50
76424;BME280;65257;52.104;4.268;2022-12-18T03:27:22;102702.78;;;-3.77;90.63
76424;BME280;65257;52.104;4.268;2022-12-18T03:29:55;102696.69;;;-3.79;90.53
76424;BME280;65257;52.104;4.268;2022-12-18T03:32:52;102697.78;;;-3.77;90.64
76424;BME280;65257;52.104;4.268;2022-12-18T03:35:21;102684.56;;;-3.76;90.15
76424;BME280;65257;52.104;4.268;2022-12-18T03:37:51;102687.06;;;-3.76;90.32
76424;BME280;65257;52.104;4.268;2022-12-18T03:40:16;102694.06;;;-3.73;89.88
76424;BME280;65257;52.104;4.268;2022-12-18T03:43:03;102692.44;;;-3.73;90.35
76424;BME280;65257;52.104;4.268;2022-12-18T03:45:38;102688.53;;;-3.71;89.23
76424;BME280;65257;52.104;4.268;2022-12-18T03:48:29;102684.44;;;-3.70;89.68
76424;BME280;65257;52.104;4.268;2022-12-18T03:51:00;102687.09;;;-3.69;89.24
76424;BME280;65257;52.104;4.268;2022-12-18T03:53:41;102701.03;;;-3.64;89.36
76424;BME280;65257;52.104;4.268;2022-12-18T03:56:09;102695.31;;;-3.70;89.15
76424;BME280;65257;52.104;4.268;2022-12-18T03:58:37;102702.47;;;-3.66;89.18
76424;BME280;65257;52.104;4.268;2022-12-18T04:01:05;102697.09;;;-3.69;89.16
76424;BME280;65257;52.104;4.268;2022-12-18T04:03:35;102693.53;;;-3.71;89.05
76424;BME280;65257;52.104;4.268;2022-12-18T04:06:02;102697.09;;;-3.69;88.40
76424;BME280;65257;52.104;4.268;2022-12-18T04:08:28;102693.91;;;-3.68;89.26
76424;BME280;65257;52.104;4.268;2022-12-18T04:10:54;102683.81;;;-3.82;89.06
76424;BME280;65257;52.104;4.268;2022-12-18T04:13:38;102685.66;;;-3.74;88.81
76424;BME280;65257;52.104;4.268;2022-12-18T04:16:08;102677.06;;;-3.83;88.76
76424;BME280;65257;52.104;4.268;2022-12-18T04:18:34;102693.50;;;-3.78;89.04
76424;BME280;65257;52.104;4.268;2022-12-18T04:21:18;102692.44;;;-3.80;88.75
76424;BME280;65257;52.104;4.268;2022-12-18T04:23:44;102698.16;;;-3.74;88.10
76424;BME280;65257;52.104;4.268;2022-12-18T04:26:09;102693.00;;;-3.68;88.46
76424;BME280;65257;52.104;4.268;2022-12-18T04:28:35;102691.38;;;-3.75;88.77
76424;BME280;65257;52.104;4.268;2022-12-18T04:31:04;102697.06;;;-3.76;88.33
76424;BME280;65257;52.104;4.268;2022-12-18T04:33:30;102699.19;;;-3.79;88.14
76424;BME280;65257;52.104;4.268;2022-12-18T04:35:58;102701.00;;;-3.78;88.09
76424;BME280;65257;52.104;4.268;2022-12-18T04:38:23;102703.28;;;-3.80;88.41
76424;BME280;65257;52.104;4.268;2022-12-18T04:40:51;102706.00;;;-3.78;88.09
76424;BME280;65257;52.104;4.268;2022-12-18T04:43:17;102709.56;;;-3.76;88.03
76424;BME280;65257;52.104;4.268;2022-12-18T04:45:42;102715.28;;;-3.77;87.83
76424;BME280;65257;52.104;4.268;2022-12-18T04:48:07;102704.56;;;-3.76;87.47
76424;BME280;65257;52.104;4.268;2022-12-18T04:50:33;102697.25;;;-3.74;87.46
76424;BME280;65257;52.104;4.268;2022-12-18T04:53:04;102699.94;;;-3.73;87.25
76424;BME280;65257;52.104;4.268;2022-12-18T04:55:29;102691.38;;;-3.75;86.80
76424;BME280;65257;52.104;4.268;2022-12-18T04:57:55;102697.78;;;-3.77;87.74
76424;BME280;65257;52.104;4.268;2022-12-18T05:00:23;102694.41;;;-3.77;87.04
76424;BME280;65257;52.104;4.268;2022-12-18T05:02:49;102699.94;;;-3.73;87.30
76424;BME280;65257;52.104;4.268;2022-12-18T05:05:14;102703.66;;;-3.84;87.35
76424;BME280;65257;52.104;4.268;2022-12-18T05:07:40;102692.78;;;-3.77;86.91
76424;BME280;65257;52.104;4.268;2022-12-18T05:10:05;102688.16;;;-3.74;86.68
76424;BME280;65257;52.104;4.268;2022-12-18T05:12:34;102683.69;;;-3.76;86.83
76424;BME280;65257;52.104;4.268;2022-12-18T05:15:19;102683.88;;;-3.75;86.38
76424;BME280;65257;52.104;4.268;2022-12-18T05:17:44;102683.00;;;-3.68;86.15
76424;BME280;65257;52.104;4.268;2022-12-18T05:20:13;102677.47;;;-3.66;85.61
76424;BME280;65257;52.104;4.268;2022-12-18T05:22:42;102670.31;;;-3.70;85.30
76424;BME280;65257;52.104;4.268;2022-12-18T05:25:07;102680.66;;;-3.67;84.79
76424;BME280;65257;52.104;4.268;2022-12-18T05:27:33;102666.03;;;-3.64;84.73
76424;BME280;65257;52.104;4.268;2022-12-18T05:29:58;102666.03;;;-3.64;84.65
76424;BME280;65257;52.104;4.268;2022-12-18T05:32:24;102671.94;;;-3.63;84.56
76424;BME280;65257;52.104;4.268;2022-12-18T05:34:54;102678.38;;;-3.65;84.97
76424;BME280;65257;52.104;4.268;2022-12-18T05:37:19;102675.31;;;-3.70;84.70
76424;BME280;65257;52.104;4.268;2022-12-18T05:39:47;102672.34;;;-3.94;85.37
76424;BME280;65257;52.104;4.268;2022-12-18T05:42:13;102675.72;;;-4.01;85.69
76424;BME280;65257;52.104;4.268;2022-12-18T05:44:38;102676.56;;;-4.07;86.57
76424;BME280;65257;52.104;4.268;2022-12-18T05:47:03;102671.19;;;-4.10;86.71
76424;BME280;65257;52.104;4.268;2022-12-18T05:49:32;102665.47;;;-4.16;86.88
76424;BME280;65257;52.104;4.268;2022-12-18T05:52:01;102674.75;;;-4.15;86.28
76424;BME280;65257;52.104;4.268;2022-12-18T05:54:32;102667.44;;;-4.14;86.89
76424;BME280;65257;52.104;4.268;2022-12-18T05:57:00;102669.75;;;-4.15;86.20
76424;BME280;65257;52.104;4.268;2022-12-18T05:59:26;102669.34;;;-4.18;86.25
76424;BME280;65257;52.104;4.268;2022-12-18T06:01:51;102674.19;;;-4.20;86.38
76424;BME280;65257;52.104;4.268;2022-12-18T06:04:17;102662.91;;;-4.23;86.38
76424;BME280;65257;52.104;4.268;2022-12-18T06:06:42;102658.25;;;-4.27;86.41
76424;BME280;65257;52.104;4.268;2022-12-18T06:09:11;102657.88;;;-4.30;87.20
76424;BME280;65257;52.104;4.268;2022-12-18T06:11:38;102648.41;;;-4.33;86.54
76424;BME280;65257;52.104;4.268;2022-12-18T06:14:05;102643.25;;;-4.34;86.60
76424;BME280;65257;52.104;4.268;2022-12-18T06:16:40;102638.94;;;-4.35;86.37
76424;BME280;65257;52.104;4.268;2022-12-18T06:19:15;102637.13;;;-4.36;86.12
76424;BME280;65257;52.104;4.268;2022-12-18T06:21:47;102636.28;;;-4.37;86.88
76424;BME280;65257;52.104;4.268;2022-12-18T06:24:14;102638.03;;;-4.36;87.07
76424;BME280;65257;52.104;4.268;2022-12-18T06:26:42;102628.56;;;-4.38;86.13
76424;BME280;65257;52.104;4.268;2022-12-18T06:29:08;102626.06;;;-4.38;86.53
76424;BME280;65257;52.104;4.268;2022-12-18T06:31:33;102628.56;;;-4.38;85.71
76424;BME280;65257;52.104;4.268;2022-12-18T06:34:02;102611.81;;;-4.39;85.41
76424;BME280;65257;52.104;4.268;2022-12-18T06:36:28;102617.16;;;-4.36;85.59
76424;BME280;65257;52.104;4.268;2022-12-18T06:38:54;102612.91;;;-4.37;85.87
76424;BME280;65257;52.104;4.268;2022-12-18T06:41:23;102613.59;;;-4.38;85.89
76424;BME280;65257;52.104;4.268;2022-12-18T06:43:52;102616.28;;;-4.37;85.54
76424;BME280;65257;52.104;4.268;2022-12-18T06:46:18;102611.47;;;-4.35;85.20
76424;BME280;65257;52.104;4.268;2022-12-18T06:48:49;102611.31;;;-4.37;85.73
76424;BME280;65257;52.104;4.268;2022-12-18T06:51:20;102590.81;;;-4.34;85.72
76424;BME280;65257;52.104;4.268;2022-12-18T06:53:45;102594.38;;;-4.32;85.23
76424;BME280;65257;52.104;4.268;2022-12-18T06:56:17;102595.28;;;-4.32;84.20
76424;BME280;65257;52.104;4.268;2022-12-18T06:58:48;102569.41;;;-4.32;84.82
76424;BME280;65257;52.104;4.268;2022-12-18T07:01:14;102576.91;;;-4.25;84.06
76424;BME280;65257;52.104;4.268;2022-12-18T07:03:42;102580.84;;;-4.20;83.65
76424;BME280;65257;52.104;4.268;2022-12-18T07:06:16;102580.84;;;-4.20;82.82
76424;BME280;65257;52.104;4.268;2022-12-18T07:08:49;102565.34;;;-4.18;83.32
76424;BME280;65257;52.104;4.268;2022-12-18T07:11:18;102557.31;;;-4.22;83.19
76424;BME280;65257;52.104;4.268;2022-12-18T07:13:45;102536.94;;;-4.25;82.91
76424;BME280;65257;52.104;4.268;2022-12-18T07:16:15;102544.78;;;-4.29;82.81
76424;BME280;65257;52.104;4.268;2022-12-18T07:18:41;102524.81;;;-4.29;82.63
76424;BME280;65257;52.104;4.268;2022-12-18T07:21:11;102520.72;;;-4.29;82.61
76424;BME280;65257;52.104;4.268;2022-12-18T07:23:40;102512.31;;;-4.29;81.45
76424;BME280;65257;52.104;4.268;2022-12-18T07:26:11;102511.59;;;-4.28;81.44
76424;BME280;65257;52.104;4.268;2022-12-18T07:28:40;102516.25;;;-4.31;81.71
76424;BME280;65257;52.104;4.268;2022-12-18T07:31:13;102510.34;;;-4.32;80.86
76424;BME280;65257;52.104;4.268;2022-12-18T07:33:40;102525.88;;;-4.34;81.45
76424;BME280;65257;52.104;4.268;2022-12-18T07:36:06;102525.34;;;-4.32;80.76
76424;BME280;65257;52.104;4.268;2022-12-18T07:38:34;102523.00;;;-4.30;80.73
76424;BME280;65257;52.104;4.268;2022-12-18T07:41:23;102520.19;;;-4.26;80.23
76424;BME280;65257;52.104;4.268;2022-12-18T07:43:48;102526.28;;;-4.17;78.96
76424;BME280;65257;52.104;4.268;2022-12-18T07:46:14;102528.41;;;-4.13;78.92
76424;BME280;65257;52.104;4.268;2022-12-18T07:48:47;102512.03;;;-4.11;79.09
76424;BME280;65257;52.104;4.268;2022-12-18T07:51:13;102508.84;;;-4.03;78.50
76424;BME280;65257;52.104;4.268;2022-12-18T07:53:47;102498.13;;;-4.02;77.64
76424;BME280;65257;52.104;4.268;2022-12-18T07:56:13;102516.72;;;-3.93;77.35
76424;BME280;65257;52.104;4.268;2022-12-18T07:58:41;102499.59;;;-3.83;76.21
76424;BME280;65257;52.104;4.268;2022-12-18T08:01:10;102506.75;;;-3.58;74.87
76424;BME280;65257;52.104;4.268;2022-12-18T08:03:36;102513.19;;;-3.60;74.28
76424;BME280;65257;52.104;4.268;2022-12-18T08:06:04;102504.25;;;-3.65;73.93
76424;BME280;65257;52.104;4.268;2022-12-18T08:08:30;102496.75;;;-3.65;74.29
76424;BME280;65257;52.104;4.268;2022-12-18T08:10:57;102503.69;;;-3.69;74.34
76424;BME280;65257;52.104;4.268;2022-12-18T08:13:25;102497.81;;;-3.70;74.27
76424;BME280;65257;52.104;4.268;2022-12-18T08:16:07;102512.09;;;-3.69;74.56
76424;BME280;65257;52.104;4.268;2022-12-18T08:18:37;102510.31;;;-3.70;74.70
76424;BME280;65257;52.104;4.268;2022-12-18T08:21:19;102503.88;;;-3.68;75.04
76424;BME280;65257;52.104;4.268;2022-12-18T08:23:46;102500.31;;;-3.70;75.24
76424;BME280;65257;52.104;4.268;2022-12-18T08:26:12;102499.06;;;-3.66;75.40
76424;BME280;65257;52.104;4.268;2022-12-18T08:28:39;102508.88;;;-3.68;75.39
76424;BME280;65257;52.104;4.268;2022-12-18T08:31:05;102517.47;;;-3.66;75.43
76424;BME280;65257;52.104;4.268;2022-12-18T08:33:34;102529.25;;;-3.65;74.97
76424;BME280;65257;52.104;4.268;2022-12-18T08:36:14;102530.00;;;-3.52;74.70
76424;BME280;65257;52.104;4.268;2022-12-18T08:38:43;102530.34;;;-3.42;74.30
76424;BME280;65257;52.104;4.268;2022-12-18T08:41:14;102542.84;;;-3.35;73.36
76424;BME280;65257;52.104;4.268;2022-12-18T08:43:42;102555.88;;;-3.30;73.47
76424;BME280;65257;52.104;4.268;2022-12-18T08:46:30;102554.28;;;-3.30;73.59
76424;BME280;65257;52.104;4.268;2022-12-18T08:48:56;102564.63;;;-3.34;73.02
76424;BME280;65257;52.104;4.268;2022-12-18T08:51:21;102556.41;;;-3.33;73.13
76424;BME280;65257;52.104;4.268;2022-12-18T08:53:47;102553.22;;;-3.32;73.59
76424;BME280;65257;52.104;4.268;2022-12-18T08:56:13;102551.94;;;-3.35;73.64
76424;BME280;65257;52.104;4.268;2022-12-18T08:58:39;102559.44;;;-3.28;73.81
76424;BME280;65257;52.104;4.268;2022-12-18T09:01:10;102551.25;;;-3.27;73.38
76424;BME280;65257;52.104;4.268;2022-12-18T09:03:36;102552.84;;;-3.28;73.69
76424;BME280;65257;52.104;4.268;2022-12-18T09:06:02;102545.50;;;-3.33;73.69
76424;BME280;65257;52.104;4.268;2022-12-18T09:08:30;102534.81;;;-3.39;74.25
76424;BME280;65257;52.104;4.268;2022-12-18T09:10:59;102520.50;;;-3.40;74.82
76424;BME280;65257;52.104;4.268;2022-12-18T09:13:24;102516.03;;;-3.43;74.76
76424;BME280;65257;52.104;4.268;2022-12-18T09:15:54;102512.13;;;-3.48;74.82
76424;BME280;65257;52.104;4.268;2022-12-18T09:18:23;102509.63;;;-3.48;75.03
76424;BME280;65257;52.104;4.268;2022-12-18T09:20:49;102506.75;;;-3.44;74.82
76424;BME280;65257;52.104;4.268;2022-12-18T09:23:18;102507.47;;;-3.38;75.08
76424;BME280;65257;52.104;4.268;2022-12-18T09:25:46;102491.75;;;-3.37;75.32
76424;BME280;65257;52.104;4.268;2022-12-18T09:28:13;102495.13;;;-3.29;74.72
76424;BME280;65257;52.104;4.268;2022-12-18T09:30:42;102495.66;;;-3.25;74.45
76424;BME280;65257;52.104;4.268;2022-12-18T09:33:08;102489.22;;;-3.23;74.67
76424;BME280;65257;52.104;4.268;2022-12-18T09:35:38;102491.16;;;-3.13;75.08
76424;BME280;65257;52.104;4.268;2022-12-18T09:38:04;102492.06;;;-3.12;74.65
76424;BME280;65257;52.104;4.268;2022-12-18T09:40:35;102509.97;;;-3.17;75.00
76424;BME280;65257;52.104;4.268;2022-12-18T09:43:04;102529.25;;;-3.08;75.82
76424;BME280;65257;52.104;4.268;2022-12-18T09:45:46;102513.84;;;-2.97;74.28
76424;BME280;65257;52.104;4.268;2022-12-18T09:48:42;102514.56;;;-2.91;74.04
76424;BME280;65257;52.104;4.268;2022-12-18T09:51:33;102509.50;;;-2.77;72.47
76424;BME280;65257;52.104;4.268;2022-12-18T09:54:04;102514.16;;;-2.73;72.02
76424;BME280;65257;52.104;4.268;2022-12-18T09:56:37;102502.00;;;-2.70;72.11
76424;BME280;65257;52.104;4.268;2022-12-18T09:59:05;102492.31;;;-2.74;72.44
76424;BME280;65257;52.104;4.268;2022-12-18T10:01:36;102492.16;;;-2.76;71.74
76424;BME280;65257;52.104;4.268;2022-12-18T10:04:05;102495.19;;;-2.71;72.18
76424;BME280;65257;52.104;4.268;2022-12-18T10:07:09;102490.88;;;-2.65;72.66
76424;BME280;65257;52.104;4.268;2022-12-18T10:12:30;102481.41;;;-2.68;72.98
76424;BME280;65257;52.104;4.268;2022-12-18T10:15:30;102478.00;;;-2.68;72.61
76424;BME280;65257;52.104;4.268;2022-12-18T10:21:31;102465.50;;;-2.68;73.19
76424;BME280;65257;52.104;4.268;2022-12-18T10:26:47;102461.38;;;-2.75;73.33
76424;BME280;65257;52.104;4.268;2022-12-18T10:29:14;102453.66;;;-2.69;72.12
76424;BME280;65257;52.104;4.268;2022-12-18T10:31:40;102450.81;;;-2.65;72.83
76424;BME280;65257;52.104;4.268;2022-12-18T10:34:10;102457.03;;;-2.55;73.50
76424;BME280;65257;52.104;4.268;2022-12-18T10:36:47;102461.84;;;-2.56;72.50
76424;BME280;65257;52.104;4.268;2022-12-18T10:39:21;102459.53;;;-2.55;73.62
76424;BME280;65257;52.104;4.268;2022-12-18T10:42:10;102465.56;;;-2.45;73.22
76424;BME280;65257;52.104;4.268;2022-12-18T10:44:36;102461.44;;;-2.45;71.76
76424;BME280;65257;52.104;4.268;2022-12-18T10:47:17;102450.69;;;-2.37;72.31
76424;BME280;65257;52.104;4.268;2022-12-18T10:49:53;102445.47;;;-2.31;72.13
76424;BME280;65257;52.104;4.268;2022-12-18T10:52:25;102443.66;;;-2.32;71.94
76424;BME280;65257;52.104;4.268;2022-12-18T10:55:03;102450.94;;;-2.20;72.21
76424;BME280;65257;52.104;4.268;2022-12-18T10:57:42;102447.03;;;-2.25;71.44
76424;BME280;65257;52.104;4.268;2022-12-18T11:00:33;102448.91;;;-2.15;71.34
76424;BME280;65257;52.104;4.268;2022-12-18T11:03:01;102440.28;;;-2.10;71.87
76424;BME280;65257;52.104;4.268;2022-12-18T11:05:30;102428.66;;;-2.10;72.28
76424;BME280;65257;52.104;4.268;2022-12-18T11:08:04;102435.06;;;-2.05;71.30
76424;BME280;65257;52.104;4.268;2022-12-18T11:10:46;102427.34;;;-1.99;71.59
76424;BME280;65257;52.104;4.268;2022-12-18T11:13:22;102431.91;;;-2.11;71.59
76424;BME280;65257;52.104;4.268;2022-12-18T11:15:50;102428.84;;;-2.08;72.25
76424;BME280;65257;52.104;4.268;2022-12-18T11:18:24;102435.47;;;-2.09;71.75
76424;BME280;65257;52.104;4.268;2022-12-18T11:21:24;102417.16;;;-2.01;72.03
76424;BME280;65257;52.104;4.268;2022-12-18T11:23:49;102415.28;;;-1.95;72.05
76424;BME280;65257;52.104;4.268;2022-12-18T11:26:15;102405.81;;;-1.97;71.29
76424;BME280;65257;52.104;4.268;2022-12-18T11:29:08;102413.13;;;-1.92;72.02
76424;BME280;65257;52.104;4.268;2022-12-18T11:31:37;102408.81;;;-1.93;71.60
76424;BME280;65257;52.104;4.268;2022-12-18T11:34:11;102391.69;;;-1.97;71.76
76424;BME280;65257;52.104;4.268;2022-12-18T11:36:43;102394.78;;;-1.83;71.39
76424;BME280;65257;52.104;4.268;2022-12-18T11:39:16;102385.44;;;-1.77;70.96
76424;BME280;65257;52.104;4.268;2022-12-18T11:41:57;102371.03;;;-1.71;71.66
76424;BME280;65257;52.104;4.268;2022-12-18T11:50:51;102340.31;;;-1.77;71.58
76424;BME280;65257;52.104;4.268;2022-12-18T11:53:18;102344.19;;;-1.72;71.70
76424;BME280;65257;52.104;4.268;2022-12-18T11:58:42;102336.13;;;-1.54;71.16
76424;BME280;65257;52.104;4.268;2022-12-18T12:04:06;102329.13;;;-1.41;68.64
76424;BME280;65257;52.104;4.268;2022-12-18T12:07:09;102320.56;;;-1.43;68.96
76424;BME280;65257;52.104;4.268;2022-12-18T12:26:49;102309.56;;;-1.52;70.31
76424;BME280;65257;52.104;4.268;2022-12-18T12:29:41;102309.31;;;-1.62;69.41
76424;BME280;65257;52.104;4.268;2022-12-18T12:32:37;102302.13;;;-1.59;69.74
76424;BME280;65257;52.104;4.268;2022-12-18T12:40:43;102311.59;;;-1.57;70.37
76424;BME280;65257;52.104;4.268;2022-12-18T12:43:21;102282.38;;;-1.56;70.25
76424;BME280;65257;52.104;4.268;2022-12-18T12:45:56;102267.00;;;-1.59;69.92
76424;BME280;65257;52.104;4.268;2022-12-18T12:51:21;102271.03;;;-1.53;71.49
76424;BME280;65257;52.104;4.268;2022-12-18T12:53:51;102255.91;;;-1.46;70.71
76424;BME280;65257;52.104;4.268;2022-12-18T12:56:20;102253.25;;;-1.47;70.47
76424;BME280;65257;52.104;4.268;2022-12-18T12:59:18;102231.69;;;-1.45;71.08
76424;BME280;65257;52.104;4.268;2022-12-18T13:01:55;102217.88;;;-1.42;70.90
76424;BME280;65257;52.104;4.268;2022-12-18T13:04:44;102238.81;;;-1.41;71.05
76424;BME280;65257;52.104;4.268;2022-12-18T13:07:16;102241.97;;;-1.35;70.85
76424;BME280;65257;52.104;4.268;2022-12-18T13:10:14;102226.50;;;-1.31;70.97
76424;BME280;65257;52.104;4.268;2022-12-18T13:13:12;102220.91;;;-1.29;71.00
76424;BME280;65257;52.104;4.268;2022-12-18T13:15:50;102210.31;;;-1.26;70.73
76424;BME280;65257;52.104;4.268;2022-12-18T13:18:28;102205.28;;;-1.26;70.43
76424;BME280;65257;52.104;4.268;2022-12-18T13:23:32;102199.13;;;-1.21;70.28
76424;BME280;65257;52.104;4.268;2022-12-18T13:26:27;102189.09;;;-1.21;71.04
76424;BME280;65257;52.104;4.268;2022-12-18T13:28:54;102188.66;;;-1.17;70.35
76424;BME280;65257;52.104;4.268;2022-12-18T13:36:41;102185.00;;;-1.12;70.30
76424;BME280;65257;52.104;4.268;2022-12-18T13:44:36;102174.69;;;-1.06;70.00
76424;BME280;65257;52.104;4.268;2022-12-18T13:47:03;102169.09;;;-1.04;70.20
76424;BME280;65257;52.104;4.268;2022-12-18T13:49:41;102167.22;;;-0.98;69.36
76424;BME280;65257;52.104;4.268;2022-12-18T13:52:24;102149.31;;;-1.01;70.58
76424;BME280;65257;52.104;4.268;2022-12-18T13:55:02;102147.25;;;-0.96;69.92
76424;BME280;65257;52.104;4.268;2022-12-18T13:57:48;102140.78;;;-0.94;69.48
76424;BME280;65257;52.104;4.268;2022-12-18T14:02:47;102140.78;;;-0.94;70.27
76424;BME280;65257;52.104;4.268;2022-12-18T14:05:27;102125.28;;;-0.90;69.97
76424;BME280;65257;52.104;4.268;2022-12-18T14:08:00;102142.28;;;-0.88;69.09
76424;BME280;65257;52.104;4.268;2022-12-18T14:10:29;102130.78;;;-0.86;70.15
76424;BME280;65257;52.104;4.268;2022-12-18T14:13:06;102126.06;;;-0.83;70.22
76424;BME280;65257;52.104;4.268;2022-12-18T14:15:43;102123.41;;;-0.76;69.50
76424;BME280;65257;52.104;4.268;2022-12-18T14:21:23;102126.97;;;-0.74;70.01
76424;BME280;65257;52.104;4.268;2022-12-18T14:26:42;102108.97;;;-0.70;69.60
76424;BME280;65257;52.104;4.268;2022-12-18T14:34:52;102093.13;;;-0.69;69.50
76424;BME280;65257;52.104;4.268;2022-12-18T14:37:26;102083.53;;;-0.73;69.34
76424;BME280;65257;52.104;4.268;2022-12-18T14:40:03;102099.50;;;-0.64;69.10
76424;BME280;65257;52.104;4.268;2022-12-18T14:42:29;102079.41;;;-0.64;69.10
76424;BME280;65257;52.104;4.268;2022-12-18T14:45:36;102064.34;;;-0.64;68.75
76424;BME280;65257;52.104;4.268;2022-12-18T14:48:07;102075.13;;;-0.65;69.01